Shipshewana, Indiana
Current Conditions -  °F | °C
As of 11:34 AM on Friday 21 Nov 2014 (Local Time) from KIRS Reporting Station
Clear Clear  
Wind Chill: -7°   Ceiling: Unl
Heat Index: -4°   Visibility: 10mi
Dew Point: -10°   Wind: 5mph
Humidity: 64%   Direction: 210°SSW
Pressure: 30.46"   Gusts: NA
Location:  41.67°N, 85.58°W
Report Text: KIRS 211634Z AUTO 21004KT 10SM CLR M04/M10 A3046 RMK AO2
Loading
Personal Weather Stations






























Interactive Weather Map New forecast layout! Learn more

10-Day Weather Forecast

Advertisements
Track Severe Weather on mobile